KCVG/CVG METAR and TAF weather

Enter ICAO airport designator
Station Type Date Time Source
KCVG METAR 2019/04/18 19:52 UTC NOAA

KCVG 181952Z 19017G25KT 10SM FEW050 SCT140 BKN250 25/12 A2967 RMK AO2 PK WND 19026/1910 SLP038 T02500122


Station Type Date Time Source
KCVG Decoded METAR 2019/04/18 19:52 UTC NOAA

CINCINNATI/NORTHERN KY INTERNATIONAL , KY, United States (KCVG) 39-03N 084-40W 269M
Apr 18, 2019 - 03:52 PM EDT / 2019.04.18 1952 UTC
Wind: from the S (190 degrees) at 20 MPH (17 KT) gusting to 29 MPH (25 KT):0
Visibility: 10 mile(s):0
Sky conditions: mostly cloudy
Temperature: 77.0 F (25.0 C)
Dew Point: 54.0 F (12.2 C)
Relative Humidity: 44%
Pressure (altimeter): 29.67 in. Hg (1004 hPa)
ob: KCVG 181952Z 19017G25KT 10SM FEW050 SCT140 BKN250 25/12 A2967 RMK AO2 PK WND 19026/1910 SLP038 T02500122
cycle: 20

Station Type Date Time Source
KCVG TAF 2019/04/18 18:51 UTC NOAA

TAF KCVG 181748Z 1818/1924 21018G28KT P6SM SCT050 BKN150
FM182300 21010KT P6SM VCSH BKN060
FM190700 02012KT 5SM SHRA BR OVC025
FM191000 33012KT 2SM SHRA OVC015
FM191300 34012KT 5SM -SHRA OVC008
FM191700 35012G20KT P6SM OVC012

Example: see airport list